createdAt,value
2018-12-13T00:01:17.062Z,10.37
2018-12-13T00:03:45.194Z,8.00
2018-12-13T00:06:13.637Z,7.22
2018-12-13T00:08:41.812Z,11.13
2018-12-13T00:11:10.017Z,12.40
2018-12-13T00:13:38.142Z,10.73
2018-12-13T00:16:06.406Z,10.53
2018-12-13T00:18:34.582Z,8.30
2018-12-13T00:21:02.722Z,10.87
2018-12-13T00:23:30.850Z,7.30
2018-12-13T00:25:58.995Z,8.75
2018-12-13T00:28:27.109Z,11.53
2018-12-13T00:30:55.262Z,5.97
2018-12-13T00:33:23.520Z,6.85
2018-12-13T00:35:51.651Z,8.07
2018-12-13T00:38:19.861Z,20.57
2018-12-13T00:40:47.998Z,9.13
2018-12-13T00:43:16.136Z,9.57
2018-12-13T00:45:44.423Z,10.00
2018-12-13T00:48:12.698Z,5.80
2018-12-13T00:50:40.844Z,6.50
2018-12-13T00:53:08.986Z,8.30
2018-12-13T00:55:37.133Z,4.47
2018-12-13T00:58:05.455Z,10.97
2018-12-13T01:00:33.669Z,6.43
2018-12-13T01:03:01.807Z,6.60
2018-12-13T01:05:30.013Z,6.90
2018-12-13T01:07:58.138Z,4.90
2018-12-13T01:10:26.319Z,5.57
2018-12-13T01:12:54.462Z,5.60
2018-12-13T01:15:22.606Z,8.90
2018-12-13T01:17:50.758Z,7.05
2018-12-13T01:20:18.897Z,8.33
2018-12-13T01:22:47.441Z,8.27
2018-12-13T01:25:15.584Z,8.40
2018-12-13T01:27:43.812Z,8.00
2018-12-13T01:30:12.353Z,8.27
2018-12-13T01:32:40.497Z,9.03
2018-12-13T01:35:08.639Z,6.07
2018-12-13T01:37:36.774Z,7.43
2018-12-13T01:40:05.457Z,6.63
2018-12-13T01:42:33.601Z,8.10
2018-12-13T01:45:01.798Z,5.75
2018-12-13T01:47:29.953Z,8.27
2018-12-13T01:49:58.057Z,4.90
2018-12-13T01:52:26.197Z,8.93
2018-12-13T01:54:54.348Z,9.47
2018-12-13T01:57:22.490Z,5.87
2018-12-13T01:59:50.677Z,9.17
2018-12-13T02:02:18.816Z,9.13
2018-12-13T02:04:46.988Z,8.50
2018-12-13T02:07:15.133Z,9.97
2018-12-13T02:09:43.337Z,7.33
2018-12-13T02:12:11.722Z,9.70
2018-12-13T02:14:39.828Z,7.85
2018-12-13T02:17:08.001Z,8.53
2018-12-13T02:19:36.133Z,6.47
2018-12-13T02:22:04.449Z,4.37
2018-12-13T02:24:32.585Z,8.33
2018-12-13T02:27:00.877Z,7.33
2018-12-13T02:29:29.049Z,5.67
2018-12-13T02:31:57.293Z,9.80
2018-12-13T02:34:25.457Z,10.30
2018-12-13T02:36:53.670Z,8.05
2018-12-13T02:39:21.803Z,5.90
2018-12-13T02:41:50.084Z,11.77
2018-12-13T02:44:18.253Z,13.23
2018-12-13T02:46:46.405Z,11.60
2018-12-13T02:49:14.566Z,8.83
2018-12-13T02:51:42.699Z,9.23
2018-12-13T02:54:10.851Z,12.90
2018-12-13T02:56:39.755Z,12.00
2018-12-13T02:59:07.900Z,13.17
2018-12-13T03:01:36.117Z,7.87
2018-12-13T03:04:04.414Z,13.33
2018-12-13T03:06:32.562Z,14.60
2018-12-13T03:09:00.798Z,12.13
2018-12-13T03:11:29.018Z,13.60
2018-12-13T03:13:57.145Z,9.30
2018-12-13T03:16:25.286Z,21.70
2018-12-13T03:18:54.349Z,16.00
2018-12-13T03:21:22.508Z,8.60
2018-12-13T03:23:51.586Z,9.75
2018-12-13T03:26:19.812Z,10.73
2018-12-13T03:28:47.937Z,9.87
2018-12-13T03:31:16.083Z,17.00
2018-12-13T03:33:44.321Z,10.57
2018-12-13T03:36:12.678Z,11.40
2018-12-13T03:38:40.922Z,9.15
2018-12-13T03:41:09.051Z,13.83
2018-12-13T03:43:37.210Z,11.20
2018-12-13T03:46:05.527Z,13.70
2018-12-13T03:48:33.661Z,13.63
2018-12-13T03:51:01.810Z,10.97
2018-12-13T03:53:29.962Z,11.70
2018-12-13T03:55:58.158Z,8.53
2018-12-13T03:58:26.393Z,12.47
2018-12-13T04:00:54.531Z,13.17
2018-12-13T04:03:23.203Z,13.68
2018-12-13T04:05:51.325Z,10.67
2018-12-13T04:08:19.468Z,7.13
2018-12-13T04:10:47.636Z,8.27
2018-12-13T04:13:15.808Z,12.40
2018-12-13T04:15:44.052Z,21.43
2018-12-13T04:18:12.306Z,13.73
2018-12-13T04:20:40.502Z,12.27
2018-12-13T04:23:08.837Z,16.60
2018-12-13T04:25:36.991Z,12.53
2018-12-13T04:28:05.234Z,16.87
2018-12-13T04:30:33.406Z,14.00
2018-12-13T04:33:01.603Z,17.37
2018-12-13T04:35:29.799Z,20.00
2018-12-13T04:37:57.965Z,20.37
2018-12-13T04:40:26.122Z,17.30
2018-12-13T04:42:54.587Z,12.78
2018-12-13T04:45:22.796Z,20.40
2018-12-13T04:47:50.954Z,18.57
2018-12-13T04:50:19.093Z,21.83
2018-12-13T04:52:47.244Z,19.23
2018-12-13T04:55:15.466Z,18.73
2018-12-13T04:57:43.594Z,20.30
2018-12-13T05:00:11.912Z,23.30
2018-12-13T05:02:40.138Z,15.72
2018-12-13T05:05:08.277Z,24.47
2018-12-13T05:07:41.689Z,18.70
2018-12-13T05:10:06.906Z,16.30
2018-12-13T05:12:35.058Z,17.33
2018-12-13T05:15:03.454Z,16.13
2018-12-13T05:17:31.610Z,15.07
2018-12-13T05:19:59.746Z,14.85
2018-12-13T05:22:27.890Z,15.72
2018-12-13T05:24:56.134Z,21.17
2018-12-13T05:27:24.308Z,14.90
2018-12-13T05:29:52.521Z,13.40
2018-12-13T05:32:20.745Z,14.97
2018-12-13T05:34:48.871Z,17.17
2018-12-13T05:37:17.013Z,15.47
2018-12-13T05:39:45.127Z,14.20
2018-12-13T05:42:13.289Z,15.87
2018-12-13T05:44:41.429Z,19.97
2018-12-13T05:47:09.568Z,19.10
2018-12-13T05:49:37.800Z,12.70
2018-12-13T05:52:05.958Z,14.63
2018-12-13T05:54:34.124Z,23.50
2018-12-13T05:57:02.267Z,23.03
2018-12-13T05:59:30.388Z,20.50
2018-12-13T06:01:58.521Z,19.48
2018-12-13T06:04:26.641Z,15.50
2018-12-13T06:06:54.773Z,11.48
2018-12-13T06:09:22.910Z,20.32
2018-12-13T06:11:51.106Z,17.92
2018-12-13T06:14:19.238Z,20.00
2018-12-13T06:16:47.369Z,16.77
2018-12-13T06:19:15.498Z,22.10
2018-12-13T06:21:43.658Z,20.93
2018-12-13T06:24:11.827Z,17.23
2018-12-13T06:26:40.008Z,16.43
2018-12-13T06:29:08.225Z,10.50
2018-12-13T06:31:36.352Z,22.90
2018-12-13T06:34:04.513Z,12.00
2018-12-13T06:36:32.833Z,15.43
2018-12-13T06:39:01.300Z,11.63
2018-12-13T06:41:29.525Z,14.83
2018-12-13T06:43:57.702Z,15.47
2018-12-13T06:46:25.921Z,18.53
2018-12-13T06:48:54.358Z,22.20
2018-12-13T06:51:22.490Z,20.60
2018-12-13T06:53:50.645Z,15.47
2018-12-13T06:56:18.819Z,18.40
2018-12-13T06:58:47.066Z,18.05
2018-12-13T07:01:15.419Z,12.27
2018-12-13T07:03:43.575Z,21.03
2018-12-13T07:06:11.774Z,11.60
2018-12-13T07:08:39.918Z,12.67
2018-12-13T07:11:08.050Z,15.10
2018-12-13T07:13:36.207Z,26.40
2018-12-13T07:16:04.422Z,20.10
2018-12-13T07:18:32.641Z,19.40
2018-12-13T07:21:01.451Z,16.80
2018-12-13T07:23:29.724Z,25.40
2018-12-13T07:25:57.853Z,23.27
2018-12-13T07:28:26.194Z,15.90
2018-12-13T07:30:54.318Z,19.27
2018-12-13T07:33:22.586Z,19.83
2018-12-13T07:35:50.740Z,21.33
2018-12-13T07:38:18.855Z,24.07
2018-12-13T07:40:46.982Z,22.30
2018-12-13T07:43:15.206Z,22.85
2018-12-13T07:45:43.358Z,22.60
2018-12-13T07:48:11.485Z,16.97
2018-12-13T07:50:39.600Z,21.73
2018-12-13T07:53:07.750Z,17.47
2018-12-13T07:55:35.864Z,18.30
2018-12-13T07:58:04.017Z,26.23
2018-12-13T08:00:33.136Z,17.70
2018-12-13T08:03:01.265Z,21.03
2018-12-13T08:05:29.427Z,22.40
2018-12-13T08:07:57.702Z,23.53
2018-12-13T08:10:25.892Z,21.17
2018-12-13T08:12:54.337Z,20.80
2018-12-13T08:15:22.489Z,22.53
2018-12-13T08:17:50.630Z,22.65
2018-12-13T08:20:18.941Z,13.23
2018-12-13T08:22:47.057Z,22.00
2018-12-13T08:25:15.313Z,22.97
2018-12-13T08:27:43.535Z,20.77
2018-12-13T08:30:11.886Z,18.13
2018-12-13T08:32:40.101Z,23.23
2018-12-13T08:35:08.342Z,14.53
2018-12-13T08:37:37.129Z,19.07
2018-12-13T08:40:06.425Z,24.02
2018-12-13T08:42:34.574Z,17.57
2018-12-13T08:45:02.738Z,19.43
2018-12-13T08:47:30.878Z,26.70
2018-12-13T08:49:59.194Z,22.37
2018-12-13T08:52:27.327Z,16.53
2018-12-13T08:54:55.477Z,22.03
2018-12-13T08:57:23.720Z,26.30
2018-12-13T08:59:52.021Z,25.80
2018-12-13T09:02:20.150Z,14.83
2018-12-13T09:04:48.322Z,21.70
2018-12-13T09:07:16.429Z,13.00
2018-12-13T09:09:44.578Z,21.80
2018-12-13T09:12:12.885Z,18.07
2018-12-13T09:14:41.105Z,22.80
2018-12-13T09:17:09.350Z,22.90
2018-12-13T09:19:37.470Z,26.57
2018-12-13T09:22:05.613Z,16.60
2018-12-13T09:24:33.821Z,19.47
2018-12-13T09:27:02.033Z,24.77
2018-12-13T09:29:30.210Z,16.60
2018-12-13T09:31:58.342Z,27.17
2018-12-13T09:34:26.649Z,22.80
2018-12-13T09:36:54.866Z,29.13
2018-12-13T09:39:23.013Z,23.63
2018-12-13T09:41:51.254Z,19.67
2018-12-13T09:44:19.520Z,19.67
2018-12-13T09:46:47.725Z,22.20
2018-12-13T09:49:16.056Z,24.75
2018-12-13T09:51:44.220Z,21.53
2018-12-13T09:54:12.717Z,17.27
2018-12-13T09:56:40.907Z,25.97
2018-12-13T09:59:09.044Z,24.00
2018-12-13T10:01:37.390Z,18.70
2018-12-13T10:04:05.701Z,25.10
2018-12-13T10:06:33.841Z,25.30
2018-12-13T10:09:02.241Z,25.50
2018-12-13T10:11:30.584Z,24.18
2018-12-13T10:13:58.729Z,23.90
2018-12-13T10:16:26.883Z,16.63
2018-12-13T10:18:55.323Z,21.63
2018-12-13T10:21:23.481Z,23.03
2018-12-13T10:23:51.720Z,20.07
2018-12-13T10:26:19.842Z,28.65
2018-12-13T10:28:47.980Z,23.70
2018-12-13T10:31:16.324Z,19.17
2018-12-13T10:33:44.462Z,23.00
2018-12-13T10:36:12.819Z,24.37
2018-12-13T10:38:41.106Z,25.17
2018-12-13T10:41:09.612Z,19.80
2018-12-13T10:43:37.848Z,18.53
2018-12-13T10:46:06.202Z,28.53
2018-12-13T10:48:34.456Z,22.23
2018-12-13T10:51:02.607Z,17.48
2018-12-13T10:53:30.769Z,20.23
2018-12-13T10:55:59.002Z,16.43
2018-12-13T10:58:27.177Z,17.57
2018-12-13T11:01:00.770Z,24.40
2018-12-13T11:03:34.394Z,30.40
2018-12-13T11:06:02.638Z,25.17
2018-12-13T11:08:30.791Z,22.13
2018-12-13T11:10:58.950Z,23.83
2018-12-13T11:13:27.208Z,19.20
2018-12-13T11:15:55.553Z,24.55
2018-12-13T11:18:23.753Z,20.27
2018-12-13T11:20:51.906Z,34.23
2018-12-13T11:23:20.047Z,25.97
2018-12-13T11:25:48.258Z,18.13
2018-12-13T11:29:32.763Z,24.03
2018-12-13T11:32:00.929Z,24.45
2018-12-13T11:34:29.155Z,21.23
2018-12-13T11:36:57.292Z,25.57
2018-12-13T11:39:25.450Z,17.40
2018-12-13T11:41:53.702Z,21.37
2018-12-13T11:44:21.939Z,26.33
2018-12-13T11:46:50.383Z,21.80
2018-12-13T11:49:18.495Z,26.90
2018-12-13T11:51:46.835Z,15.40
2018-12-13T11:54:28.540Z,19.93
2018-12-13T11:56:56.795Z,20.07
2018-12-13T11:59:25.018Z,23.10
2018-12-13T12:01:53.210Z,25.83
2018-12-13T12:04:21.365Z,25.43
2018-12-13T12:06:49.501Z,15.18
2018-12-13T12:09:17.616Z,20.90
2018-12-13T12:11:45.831Z,20.30
2018-12-13T12:14:14.129Z,18.03
2018-12-13T12:16:42.625Z,17.17
2018-12-13T12:19:10.883Z,19.43
2018-12-13T12:21:39.189Z,21.03
2018-12-13T12:24:07.434Z,29.47
2018-12-13T12:26:35.614Z,23.98
2018-12-13T12:29:03.937Z,21.45
2018-12-13T12:31:32.082Z,28.90
2018-12-13T12:34:00.343Z,24.97
2018-12-13T12:36:28.574Z,20.77
2018-12-13T12:38:56.695Z,18.03
2018-12-13T12:41:25.061Z,19.37
2018-12-13T12:43:53.267Z,22.80
2018-12-13T12:46:21.529Z,23.17
2018-12-13T12:48:49.700Z,19.77
2018-12-13T12:51:17.853Z,22.27
2018-12-13T12:53:46.144Z,22.40
2018-12-13T12:56:14.299Z,16.73
2018-12-13T12:58:42.600Z,31.77
2018-12-13T13:01:10.774Z,29.52
2018-12-13T13:03:38.933Z,21.62
2018-12-13T13:06:07.313Z,20.00
2018-12-13T13:08:35.562Z,18.77
2018-12-13T13:11:03.741Z,23.30
2018-12-13T13:13:31.920Z,25.70
2018-12-13T13:16:00.134Z,20.80
2018-12-13T13:18:28.405Z,18.27
2018-12-13T13:20:56.691Z,26.75
2018-12-13T13:23:25.443Z,46.60
2018-12-13T13:25:53.619Z,24.75
2018-12-13T13:28:21.911Z,17.10
2018-12-13T13:30:50.100Z,21.43
2018-12-13T13:33:18.302Z,25.57
2018-12-13T13:35:46.550Z,19.80
2018-12-13T13:38:15.315Z,21.77
2018-12-13T13:40:43.613Z,20.83
2018-12-13T13:43:11.780Z,25.13
2018-12-13T13:45:39.942Z,22.13
2018-12-13T13:48:08.141Z,24.90
2018-12-13T13:50:36.270Z,21.70
2018-12-13T13:53:04.547Z,19.70
2018-12-13T13:55:32.868Z,16.90
2018-12-13T13:58:01.071Z,25.47
2018-12-13T14:00:29.260Z,20.70
2018-12-13T14:02:57.678Z,23.87
2018-12-13T14:05:25.877Z,22.27
2018-12-13T14:07:54.106Z,21.93
2018-12-13T14:10:22.393Z,24.72
2018-12-13T14:12:50.606Z,11.73
2018-12-13T14:15:19.097Z,22.10
2018-12-13T14:17:47.275Z,18.40
2018-12-13T14:20:15.463Z,21.60
2018-12-13T14:22:44.268Z,11.88
2018-12-13T14:25:12.732Z,17.83
2018-12-13T14:27:40.905Z,13.20
2018-12-13T14:30:09.322Z,21.00
2018-12-13T14:32:37.513Z,21.43
2018-12-13T14:35:06.370Z,7.90
2018-12-13T14:37:34.545Z,11.93
2018-12-13T14:40:02.942Z,20.10
2018-12-13T14:42:31.138Z,17.27
2018-12-13T14:44:59.451Z,19.30
2018-12-13T14:47:27.586Z,19.83
2018-12-13T14:49:55.729Z,20.27
2018-12-13T14:52:24.035Z,28.43
2018-12-13T14:54:52.435Z,17.42
2018-12-13T14:57:20.851Z,23.43
2018-12-13T14:59:48.993Z,19.82
2018-12-13T15:02:18.376Z,22.30
2018-12-13T15:04:46.626Z,20.10
2018-12-13T15:07:14.926Z,18.40
2018-12-13T15:09:43.145Z,19.97
2018-12-13T15:12:11.326Z,20.50
2018-12-13T15:14:39.766Z,22.70
2018-12-13T15:17:07.938Z,13.87
2018-12-13T15:19:36.097Z,21.13
2018-12-13T15:22:04.312Z,22.43
2018-12-13T15:24:32.586Z,24.43
2018-12-13T15:27:00.834Z,13.73
2018-12-13T15:29:29.046Z,19.90
2018-12-13T15:31:59.613Z,17.70
2018-12-13T15:34:27.666Z,19.37
2018-12-13T15:36:55.974Z,20.57
2018-12-13T15:39:24.117Z,19.53
2018-12-13T15:41:52.429Z,15.50
2018-12-13T15:44:20.743Z,24.47
2018-12-13T15:48:55.590Z,19.62
2018-12-13T15:51:23.950Z,21.27
2018-12-13T15:53:52.120Z,20.40
2018-12-13T15:56:20.507Z,18.17
2018-12-13T15:58:48.802Z,24.23
2018-12-13T16:01:17.198Z,21.60
2018-12-13T16:03:45.575Z,16.03
2018-12-13T16:06:13.793Z,17.93
2018-12-13T16:08:41.987Z,29.00
2018-12-13T16:11:10.185Z,24.30
2018-12-13T16:13:38.314Z,14.93
2018-12-13T16:16:06.535Z,17.57
2018-12-13T16:18:34.691Z,18.53
2018-12-13T16:21:03.062Z,22.87
2018-12-13T16:23:31.653Z,20.70
2018-12-13T16:25:59.843Z,19.07
2018-12-13T16:28:28.039Z,19.87
2018-12-13T16:30:56.174Z,11.83
2018-12-13T16:33:24.345Z,20.47
2018-12-13T16:35:52.501Z,27.10
2018-12-13T16:38:20.654Z,19.50
2018-12-13T16:40:48.884Z,21.10
2018-12-13T16:43:17.070Z,24.27
2018-12-13T16:45:45.212Z,18.63
2018-12-13T16:48:13.375Z,20.20
2018-12-13T16:50:41.629Z,20.20
2018-12-13T16:53:09.772Z,24.87
2018-12-13T16:55:37.922Z,19.00
2018-12-13T16:58:06.216Z,25.13
2018-12-13T17:00:34.350Z,19.50
2018-12-13T17:03:12.687Z,19.10
2018-12-13T17:05:40.807Z,17.87
2018-12-13T17:08:08.957Z,24.57
2018-12-13T17:10:37.211Z,19.83
2018-12-13T17:13:05.347Z,12.40
2018-12-13T17:15:33.483Z,16.07
2018-12-13T17:18:01.685Z,20.77
2018-12-13T17:20:29.827Z,13.43
2018-12-13T17:22:57.982Z,21.83
2018-12-13T17:25:26.122Z,19.30
2018-12-13T17:27:54.267Z,17.23
2018-12-13T17:30:22.504Z,17.50
2018-12-13T17:32:50.717Z,18.07
2018-12-13T17:35:19.034Z,19.10
2018-12-13T17:37:47.173Z,19.07
2018-12-13T17:40:15.347Z,18.20
2018-12-13T17:42:43.994Z,17.43
2018-12-13T17:45:12.121Z,15.57
2018-12-13T17:47:40.554Z,19.93
2018-12-13T17:50:08.773Z,18.97
2018-12-13T17:52:36.978Z,17.00
2018-12-13T17:55:05.321Z,14.70
2018-12-13T17:57:33.472Z,21.97
2018-12-13T18:00:01.702Z,19.57
2018-12-13T18:02:29.820Z,21.02
2018-12-13T18:04:57.949Z,25.80
2018-12-13T18:07:26.097Z,20.02
2018-12-13T18:09:54.245Z,19.75
2018-12-13T18:12:23.328Z,16.85
2018-12-13T18:14:51.486Z,16.87
2018-12-13T18:17:19.631Z,20.13
2018-12-13T18:19:47.951Z,20.80
2018-12-13T18:22:16.090Z,18.47
2018-12-13T18:24:44.222Z,20.83
2018-12-13T18:27:12.393Z,21.10
2018-12-13T18:29:40.541Z,18.47
2018-12-13T18:32:08.925Z,16.70
2018-12-13T18:34:37.069Z,12.98
2018-12-13T18:37:05.350Z,16.70
2018-12-13T18:39:33.486Z,10.70
2018-12-13T18:42:01.642Z,22.90
2018-12-13T18:44:29.774Z,19.43
2018-12-13T18:46:58.004Z,11.57
2018-12-13T18:49:27.002Z,17.62
2018-12-13T18:51:55.201Z,16.60
2018-12-13T18:54:23.355Z,20.03
2018-12-13T18:56:51.582Z,14.67
2018-12-13T18:59:19.740Z,16.10
2018-12-13T19:01:47.868Z,20.63
2018-12-13T19:04:15.992Z,16.50
2018-12-13T19:06:44.131Z,23.50
2018-12-13T19:09:12.296Z,20.90
2018-12-13T19:11:40.462Z,17.63
2018-12-13T19:14:08.638Z,12.00
2018-12-13T19:16:36.865Z,19.63
2018-12-13T19:19:05.094Z,24.52
2018-12-13T19:21:33.222Z,16.57
2018-12-13T19:24:01.402Z,18.87
2018-12-13T19:26:29.541Z,20.37
2018-12-13T19:28:58.473Z,14.20
2018-12-13T19:31:26.601Z,22.77
2018-12-13T19:33:54.736Z,19.17
2018-12-13T19:36:23.084Z,23.40
2018-12-13T19:38:51.198Z,24.63
2018-12-13T19:41:19.321Z,17.67
2018-12-13T19:43:47.450Z,16.77
2018-12-13T19:46:15.697Z,20.00
2018-12-13T19:48:43.880Z,27.07
2018-12-13T19:51:12.033Z,19.33
2018-12-13T19:53:40.252Z,20.90
2018-12-13T19:56:08.569Z,18.60
2018-12-13T19:58:36.702Z,24.67
2018-12-13T20:01:04.919Z,22.73
2018-12-13T20:03:33.166Z,14.67
2018-12-13T20:06:01.300Z,19.50
2018-12-13T20:08:30.299Z,17.60
2018-12-13T20:10:58.440Z,19.97
2018-12-13T20:13:26.633Z,17.50
2018-12-13T20:15:54.779Z,19.63
2018-12-13T20:18:22.919Z,22.20
2018-12-13T20:20:51.125Z,18.13
2018-12-13T20:23:19.259Z,19.57
2018-12-13T20:25:47.396Z,21.57
2018-12-13T20:28:15.566Z,23.30
2018-12-13T20:30:43.902Z,18.17
2018-12-13T20:33:12.054Z,18.10
2018-12-13T20:35:40.211Z,19.32
2018-12-13T20:38:08.366Z,20.17
2018-12-13T20:40:36.604Z,17.90
2018-12-13T20:43:04.855Z,22.37
2018-12-13T20:45:33.135Z,16.97
2018-12-13T20:48:02.018Z,18.75
2018-12-13T20:50:30.177Z,17.73
2018-12-13T20:52:58.325Z,18.97
2018-12-13T20:55:26.465Z,15.20
2018-12-13T20:58:08.813Z,16.33
2018-12-13T21:00:36.963Z,19.33
2018-12-13T21:03:05.218Z,14.90
2018-12-13T21:05:33.433Z,25.23
2018-12-13T21:08:07.076Z,21.43
2018-12-13T21:10:35.290Z,19.17
2018-12-13T21:13:03.655Z,19.70
2018-12-13T21:15:31.912Z,19.97
2018-12-13T21:18:00.129Z,16.30
2018-12-13T21:20:28.262Z,20.37
2018-12-13T21:22:56.519Z,13.40
2018-12-13T21:25:24.726Z,20.27
2018-12-13T21:27:52.975Z,22.03
2018-12-13T21:30:21.145Z,17.20
2018-12-13T21:32:49.313Z,17.97
2018-12-13T21:35:17.564Z,15.40
2018-12-13T21:37:45.719Z,18.37
2018-12-13T21:40:14.025Z,20.97
2018-12-13T21:42:42.270Z,19.20
2018-12-13T21:45:10.585Z,23.47
2018-12-13T21:47:38.734Z,17.73
2018-12-13T21:50:08.096Z,23.43
2018-12-13T21:52:36.254Z,21.80
2018-12-13T21:55:05.142Z,23.55
2018-12-13T21:57:33.379Z,21.07
2018-12-13T22:02:40.851Z,19.02
2018-12-13T22:05:09.023Z,22.10
2018-12-13T22:07:37.166Z,25.43
2018-12-13T22:10:06.373Z,16.87
2018-12-13T22:12:35.098Z,17.00
2018-12-13T22:15:03.316Z,29.73
2018-12-13T22:17:31.462Z,20.07
2018-12-13T22:19:59.661Z,21.73
2018-12-13T22:22:27.839Z,18.97
2018-12-13T22:24:55.973Z,20.00
2018-12-13T22:27:24.186Z,19.83
2018-12-13T22:29:52.328Z,18.10
2018-12-13T22:32:20.504Z,20.33
2018-12-13T22:34:49.197Z,26.50
2018-12-13T22:37:17.622Z,21.97
2018-12-13T22:39:45.777Z,23.20
2018-12-13T22:42:14.057Z,21.43
2018-12-13T22:44:42.249Z,22.00
2018-12-13T22:47:10.402Z,17.60
2018-12-13T22:49:38.521Z,18.13
2018-12-13T22:52:06.661Z,23.63
2018-12-13T22:54:34.800Z,19.43
2018-12-13T22:57:02.990Z,23.13
2018-12-13T22:59:31.242Z,16.10
2018-12-13T23:01:59.565Z,29.00
2018-12-13T23:04:27.896Z,17.87
2018-12-13T23:06:56.130Z,15.93
2018-12-13T23:09:24.268Z,20.63
2018-12-13T23:11:52.409Z,28.43
2018-12-13T23:14:20.542Z,20.40
2018-12-13T23:16:48.669Z,19.45
2018-12-13T23:19:16.986Z,21.10
2018-12-13T23:21:45.129Z,27.43
2018-12-13T23:24:13.276Z,21.60
2018-12-13T23:26:41.620Z,27.17
2018-12-13T23:29:09.768Z,22.93
2018-12-13T23:31:37.958Z,16.87
2018-12-13T23:34:06.193Z,30.50
2018-12-13T23:36:34.499Z,18.17
2018-12-13T23:39:02.687Z,24.93
2018-12-13T23:41:30.802Z,24.20
2018-12-13T23:43:59.042Z,21.07
2018-12-13T23:46:27.270Z,21.03
2018-12-13T23:48:55.410Z,29.70
2018-12-13T23:51:23.693Z,28.40
2018-12-13T23:53:51.882Z,19.83
2018-12-13T23:56:20.218Z,20.30
2018-12-13T23:58:48.639Z,22.93
